createdAt,value
2023-02-22T00:00:28.110Z,8.05
2023-02-22T00:03:01.094Z,6.88
2023-02-22T00:05:35.472Z,5.55
2023-02-22T00:08:10.221Z,6.50
2023-02-22T00:10:43.199Z,6.75
2023-02-22T00:13:16.147Z,6.38
2023-02-22T00:15:49.084Z,6.22
2023-02-22T00:18:21.980Z,8.60
2023-02-22T00:20:56.292Z,7.22
2023-02-22T00:23:30.676Z,10.75
2023-02-22T00:26:03.702Z,6.85
2023-02-22T00:28:36.967Z,6.95
2023-02-22T00:31:09.968Z,7.50
2023-02-22T00:33:43.252Z,6.93
2023-02-22T00:36:17.610Z,7.10
2023-02-22T00:38:50.567Z,6.30
2023-02-22T00:41:24.020Z,7.65
2023-02-22T00:43:56.944Z,9.35
2023-02-22T00:46:29.818Z,6.65
2023-02-22T00:49:03.681Z,6.60
2023-02-22T00:51:38.117Z,7.10
2023-02-22T00:54:12.118Z,8.13
2023-02-22T00:56:45.357Z,6.22
2023-02-22T00:59:18.242Z,7.63
2023-02-22T01:01:51.290Z,7.45
2023-02-22T01:04:24.457Z,6.95
2023-02-22T01:07:00.778Z,8.85
2023-02-22T01:09:34.934Z,6.43
2023-02-22T01:12:08.918Z,7.95
2023-02-22T01:14:42.453Z,9.38
2023-02-22T01:17:15.422Z,7.50
2023-02-22T01:19:48.370Z,6.90
2023-02-22T01:22:23.365Z,7.70
2023-02-22T01:24:56.348Z,9.23
2023-02-22T01:27:29.311Z,10.00
2023-02-22T01:30:02.189Z,8.65
2023-02-22T01:32:35.695Z,5.55
2023-02-22T01:35:13.714Z,8.30
2023-02-22T01:37:48.132Z,7.28
2023-02-22T01:40:26.186Z,6.78
2023-02-22T01:43:02.056Z,6.90
2023-02-22T01:45:49.359Z,8.93
2023-02-22T01:48:29.361Z,6.93
2023-02-22T01:51:11.207Z,10.23
2023-02-22T01:56:22.080Z,4.93
2023-02-22T01:59:01.023Z,6.50
2023-02-22T02:01:34.805Z,8.43
2023-02-22T02:04:11.302Z,9.95
2023-02-22T02:06:45.129Z,8.70
2023-02-22T02:09:25.749Z,7.07
2023-02-22T02:12:03.090Z,9.90
2023-02-22T02:14:41.074Z,8.10
2023-02-22T02:17:16.549Z,7.15
2023-02-22T02:19:59.414Z,7.47
2023-02-22T02:22:42.871Z,6.20
2023-02-22T02:25:46.512Z,8.45
2023-02-22T02:28:44.663Z,6.63
2023-02-22T02:31:47.522Z,7.43
2023-02-22T02:34:29.262Z,5.82
2023-02-22T02:37:12.404Z,6.25
2023-02-22T02:39:52.608Z,7.80
2023-02-22T02:42:32.455Z,7.88
2023-02-22T02:45:11.024Z,7.97
2023-02-22T02:47:48.420Z,8.07
2023-02-22T02:50:27.649Z,6.03
2023-02-22T02:53:06.009Z,7.95
2023-02-22T02:55:39.049Z,8.35
2023-02-22T02:58:20.227Z,7.35
2023-02-22T03:00:57.611Z,6.68
2023-02-22T03:03:47.672Z,6.95
2023-02-22T03:06:44.249Z,7.55
2023-02-22T03:09:28.262Z,9.18
2023-02-22T03:12:14.750Z,6.18
2023-02-22T03:15:00.394Z,6.35
2023-02-22T03:17:42.516Z,7.45
2023-02-22T03:20:23.591Z,7.82
2023-02-22T03:23:03.574Z,8.57
2023-02-22T03:25:41.400Z,8.05
2023-02-22T03:28:18.937Z,7.05
2023-02-22T03:30:56.072Z,8.95
2023-02-22T03:33:36.432Z,7.45
2023-02-22T03:36:16.417Z,8.57
2023-02-22T03:38:55.598Z,5.70
2023-02-22T03:41:30.258Z,5.43
2023-02-22T03:44:06.552Z,6.95
2023-02-22T03:46:41.889Z,6.63
2023-02-22T03:49:21.345Z,6.50
2023-02-22T03:51:54.656Z,6.07
2023-02-22T03:54:29.571Z,5.85
2023-02-22T03:57:13.344Z,7.35
2023-02-22T03:59:47.303Z,6.93
2023-02-22T04:02:20.479Z,6.00
2023-02-22T04:04:53.464Z,8.85
2023-02-22T04:07:26.437Z,6.80
2023-02-22T04:10:02.835Z,7.97
2023-02-22T04:12:36.067Z,7.18
2023-02-22T04:15:11.075Z,6.53
2023-02-22T04:17:44.086Z,6.05
2023-02-22T04:20:19.934Z,7.03
2023-02-22T04:22:53.668Z,6.22
2023-02-22T04:25:28.062Z,8.60
2023-02-22T04:28:00.951Z,9.27
2023-02-22T04:30:33.865Z,5.57
2023-02-22T04:33:06.876Z,5.75
2023-02-22T04:35:39.983Z,6.20
2023-02-22T04:38:12.928Z,6.15
2023-02-22T04:40:47.296Z,5.07
2023-02-22T04:43:20.618Z,6.13
2023-02-22T04:45:53.627Z,5.35
2023-02-22T04:48:26.543Z,7.35
2023-02-22T04:50:59.458Z,7.20
2023-02-22T04:53:32.492Z,7.70
2023-02-22T04:56:08.052Z,7.65
2023-02-22T04:58:41.068Z,6.65
2023-02-22T05:01:15.461Z,8.93
2023-02-22T05:03:48.614Z,6.50
2023-02-22T05:06:21.599Z,7.53
2023-02-22T05:08:54.500Z,8.13
2023-02-22T05:11:29.045Z,6.13
2023-02-22T05:14:01.955Z,7.18
2023-02-22T05:16:36.068Z,10.88
2023-02-22T05:19:09.536Z,5.30
2023-02-22T05:21:42.683Z,6.40
2023-02-22T05:24:15.503Z,7.15
2023-02-22T05:26:51.362Z,6.68
2023-02-22T05:29:24.255Z,8.75
2023-02-22T05:31:58.284Z,6.07
2023-02-22T05:34:31.408Z,5.88
2023-02-22T05:37:04.678Z,5.50
2023-02-22T05:39:37.582Z,4.88
2023-02-22T05:42:12.017Z,5.30
2023-02-22T05:44:44.874Z,5.35
2023-02-22T05:47:18.301Z,5.07
2023-02-22T05:49:51.141Z,6.50
2023-02-22T05:52:24.483Z,6.07
2023-02-22T05:54:57.384Z,5.72
2023-02-22T05:57:31.681Z,7.43
2023-02-22T06:00:06.939Z,7.25
2023-02-22T06:02:39.807Z,8.82
2023-02-22T06:05:12.921Z,6.00
2023-02-22T06:07:45.801Z,7.82
2023-02-22T06:10:20.282Z,5.53
2023-02-22T06:12:55.659Z,7.20
2023-02-22T06:15:29.785Z,6.85
2023-02-22T06:18:03.609Z,5.22
2023-02-22T06:20:36.503Z,9.82
2023-02-22T06:23:09.399Z,14.00
2023-02-22T06:25:42.243Z,13.02
2023-02-22T06:28:16.595Z,9.75
2023-02-22T06:30:49.574Z,9.15
2023-02-22T06:33:22.474Z,6.90
2023-02-22T06:35:55.422Z,6.95
2023-02-22T06:38:29.288Z,5.65
2023-02-22T06:41:02.935Z,6.55
2023-02-22T06:43:37.373Z,5.93
2023-02-22T06:46:11.654Z,7.97
2023-02-22T06:48:44.548Z,7.63
2023-02-22T06:51:17.758Z,5.07
2023-02-22T06:53:50.788Z,6.43
2023-02-22T06:56:23.808Z,4.55
2023-02-22T06:58:58.058Z,8.02
2023-02-22T07:01:31.547Z,7.28
2023-02-22T07:04:04.780Z,6.00
2023-02-22T07:06:37.672Z,4.50
2023-02-22T07:09:10.625Z,5.28
2023-02-22T07:11:43.554Z,7.20
2023-02-22T07:14:19.682Z,6.72
2023-02-22T07:16:52.800Z,6.10
2023-02-22T07:19:25.809Z,6.05
2023-02-22T07:21:59.464Z,5.70
2023-02-22T07:24:35.106Z,5.00
2023-02-22T07:27:08.028Z,6.60
2023-02-22T07:29:44.061Z,4.30
2023-02-22T07:32:16.938Z,7.38
2023-02-22T07:34:49.945Z,5.32
2023-02-22T07:37:22.757Z,7.53
2023-02-22T07:39:55.700Z,5.78
2023-02-22T07:42:28.536Z,5.25
2023-02-22T07:45:03.086Z,4.28
2023-02-22T07:47:36.012Z,6.47
2023-02-22T07:50:09.163Z,8.10
2023-02-22T07:52:42.046Z,5.18
2023-02-22T07:55:17.891Z,7.32
2023-02-22T07:57:52.633Z,5.15
2023-02-22T08:00:29.548Z,6.97
2023-02-22T08:03:03.948Z,5.47
2023-02-22T08:05:39.263Z,6.40
2023-02-22T08:08:12.495Z,5.60
2023-02-22T08:10:45.764Z,4.55
2023-02-22T08:13:20.623Z,4.75
2023-02-22T08:15:55.429Z,5.03
2023-02-22T08:18:28.300Z,4.90
2023-02-22T08:21:01.167Z,4.88
2023-02-22T08:23:34.095Z,5.82
2023-02-22T08:26:08.619Z,5.45
2023-02-22T08:28:41.581Z,4.47
2023-02-22T08:31:16.313Z,5.60
2023-02-22T08:33:50.469Z,5.75
2023-02-22T08:36:23.586Z,4.88
2023-02-22T08:38:56.551Z,4.20
2023-02-22T08:41:30.402Z,7.10
2023-02-22T08:44:03.365Z,6.18
2023-02-22T08:46:38.977Z,2.85
2023-02-22T08:49:11.848Z,3.38
2023-02-22T08:51:44.787Z,6.47
2023-02-22T08:54:18.653Z,9.60
2023-02-22T08:56:51.621Z,5.93
2023-02-22T08:59:24.650Z,5.65
2023-02-22T09:01:59.106Z,6.32
2023-02-22T09:04:32.066Z,9.30
2023-02-22T09:07:04.958Z,7.57
2023-02-22T09:09:38.171Z,6.28
2023-02-22T09:12:11.627Z,8.82
2023-02-22T09:14:44.503Z,7.35
2023-02-22T09:17:19.014Z,8.35
2023-02-22T09:19:51.964Z,8.30
2023-02-22T09:22:24.836Z,9.35
2023-02-22T09:25:00.224Z,7.32
2023-02-22T09:27:33.214Z,10.50
2023-02-22T09:30:06.636Z,8.63
2023-02-22T09:32:41.196Z,10.05
2023-02-22T09:35:14.201Z,8.73
2023-02-22T09:37:47.239Z,10.13
2023-02-22T09:40:25.147Z,9.68
2023-02-22T09:43:09.384Z,6.45
2023-02-22T09:45:59.087Z,7.25
2023-02-22T09:48:36.122Z,7.63
2023-02-22T09:51:16.947Z,9.20
2023-02-22T09:53:52.414Z,7.65
2023-02-22T09:56:26.936Z,6.10
2023-02-22T09:59:04.702Z,8.20
2023-02-22T10:01:43.450Z,6.57
2023-02-22T10:04:23.470Z,8.93
2023-02-22T10:07:07.019Z,6.38
2023-02-22T10:09:43.344Z,7.25
2023-02-22T10:12:24.507Z,6.80
2023-02-22T10:15:23.173Z,11.93
2023-02-22T10:18:05.099Z,7.57
2023-02-22T10:23:31.123Z,9.02
2023-02-22T10:26:16.027Z,9.20
2023-02-22T10:28:55.666Z,13.18
2023-02-22T10:31:33.673Z,11.60
2023-02-22T10:34:13.022Z,13.07
2023-02-22T10:36:51.331Z,14.70
2023-02-22T10:39:29.727Z,11.48
2023-02-22T10:42:06.948Z,11.95
2023-02-22T10:44:41.727Z,13.82
2023-02-22T10:47:18.296Z,12.25
2023-02-22T10:49:55.654Z,16.05
2023-02-22T10:52:33.873Z,13.00
2023-02-22T10:55:15.735Z,12.25
2023-02-22T10:57:51.926Z,12.80
2023-02-22T11:00:37.585Z,14.52
2023-02-22T11:03:19.504Z,11.05
2023-02-22T11:08:30.795Z,14.68
2023-02-22T11:11:24.650Z,10.82
2023-02-22T11:13:59.583Z,12.45
2023-02-22T11:16:36.219Z,12.85
2023-02-22T11:19:20.708Z,12.40
2023-02-22T11:21:57.028Z,11.43
2023-02-22T11:24:43.568Z,10.25
2023-02-22T11:27:31.749Z,14.02
2023-02-22T11:30:26.972Z,10.32
2023-02-22T11:33:06.200Z,10.25
2023-02-22T11:35:50.315Z,16.52
2023-02-22T11:38:25.617Z,12.75
2023-02-22T11:41:17.958Z,12.82
2023-02-22T11:43:52.430Z,10.40
2023-02-22T11:46:29.072Z,12.45
2023-02-22T11:49:05.456Z,12.07
2023-02-22T11:51:54.519Z,11.18
2023-02-22T11:54:53.406Z,11.95
2023-02-22T11:57:51.589Z,12.25
2023-02-22T12:00:33.475Z,10.90
2023-02-22T12:03:28.931Z,12.52
2023-02-22T12:06:14.276Z,12.23
2023-02-22T12:09:01.875Z,13.15
2023-02-22T12:11:41.223Z,12.13
2023-02-22T12:14:27.236Z,10.85
2023-02-22T12:17:14.310Z,10.70
2023-02-22T12:19:51.425Z,10.25
2023-02-22T12:22:27.875Z,10.73
2023-02-22T12:25:10.034Z,9.13
2023-02-22T12:27:49.272Z,10.90
2023-02-22T12:30:28.869Z,10.38
2023-02-22T12:33:06.579Z,8.90
2023-02-22T12:35:46.222Z,10.07
2023-02-22T12:38:24.683Z,12.20
2023-02-22T12:41:04.478Z,12.48
2023-02-22T12:43:43.001Z,10.55
2023-02-22T12:46:21.714Z,10.73
2023-02-22T12:49:02.091Z,11.20
2023-02-22T12:51:45.126Z,10.93
2023-02-22T12:54:26.371Z,10.80
2023-02-22T12:57:05.909Z,14.48
2023-02-22T12:59:45.321Z,10.77
2023-02-22T13:02:23.873Z,10.85
2023-02-22T13:04:57.020Z,10.45
2023-02-22T13:07:41.583Z,11.98
2023-02-22T13:10:36.158Z,10.35
2023-02-22T13:13:19.868Z,10.02
2023-02-22T13:16:01.039Z,10.25
2023-02-22T13:18:40.974Z,12.35
2023-02-22T13:21:20.693Z,10.57
2023-02-22T13:24:04.746Z,8.82
2023-02-22T13:26:46.237Z,10.07
2023-02-22T13:29:23.606Z,8.95
2023-02-22T13:32:09.664Z,9.70
2023-02-22T13:35:03.238Z,9.90
2023-02-22T13:38:10.810Z,10.55
2023-02-22T13:41:05.401Z,10.73
2023-02-22T13:44:08.679Z,9.30
2023-02-22T13:47:08.733Z,8.80
2023-02-22T13:50:14.942Z,11.65
2023-02-22T13:52:52.478Z,9.52
2023-02-22T13:55:32.734Z,10.73
2023-02-22T13:58:08.246Z,10.50
2023-02-22T14:00:45.854Z,12.85
2023-02-22T14:03:41.352Z,10.13
2023-02-22T14:06:39.209Z,11.43
2023-02-22T14:09:20.046Z,10.38
2023-02-22T14:11:56.795Z,11.45
2023-02-22T14:14:29.754Z,11.60
2023-02-22T14:17:27.192Z,10.55
2023-02-22T14:20:32.241Z,9.88
2023-02-22T14:23:31.173Z,10.23
2023-02-22T14:26:19.075Z,12.63
2023-02-22T14:28:57.135Z,9.82
2023-02-22T14:31:37.366Z,13.25
2023-02-22T14:34:12.622Z,10.25
2023-02-22T14:36:52.344Z,11.25
2023-02-22T14:39:32.644Z,9.07
2023-02-22T14:42:12.763Z,10.57
2023-02-22T14:44:55.141Z,10.82
2023-02-22T14:47:32.924Z,10.45
2023-02-22T14:50:14.130Z,10.10
2023-02-22T14:52:50.027Z,9.43
2023-02-22T14:55:26.909Z,9.38
2023-02-22T14:58:09.716Z,10.75
2023-02-22T15:00:45.931Z,11.63
2023-02-22T15:03:29.149Z,11.10
2023-02-22T15:06:07.566Z,9.88
2023-02-22T15:08:41.750Z,11.93
2023-02-22T15:11:22.573Z,9.90
2023-02-22T15:13:57.867Z,12.30
2023-02-22T15:16:34.963Z,10.88
2023-02-22T15:19:08.742Z,8.88
2023-02-22T15:21:47.373Z,9.50
2023-02-22T15:24:23.688Z,11.27
2023-02-22T15:27:02.082Z,12.95
2023-02-22T15:29:40.190Z,14.68
2023-02-22T15:32:21.312Z,10.30
2023-02-22T15:34:56.558Z,12.85
2023-02-22T15:37:29.436Z,9.43
2023-02-22T15:40:14.482Z,9.43
2023-02-22T15:42:49.702Z,11.18
2023-02-22T15:45:26.282Z,10.02
2023-02-22T15:47:59.908Z,10.13
2023-02-22T15:50:35.648Z,14.43
2023-02-22T15:53:24.987Z,10.65
2023-02-22T15:56:00.703Z,11.25
2023-02-22T15:58:33.755Z,9.00
2023-02-22T16:01:11.163Z,11.82
2023-02-22T16:03:49.123Z,8.93
2023-02-22T16:06:30.245Z,10.60
2023-02-22T16:09:09.334Z,9.60
2023-02-22T16:11:44.324Z,8.85
2023-02-22T16:14:28.421Z,8.85
2023-02-22T16:17:30.930Z,11.40
2023-02-22T16:20:35.531Z,9.00
2023-02-22T16:23:26.220Z,10.38
2023-02-22T16:26:20.940Z,11.75
2023-02-22T16:28:56.323Z,8.68
2023-02-22T16:31:33.714Z,10.57
2023-02-22T16:34:10.453Z,10.23
2023-02-22T16:36:45.610Z,9.95
2023-02-22T16:39:23.625Z,9.00
2023-02-22T16:41:58.563Z,10.13
2023-02-22T16:44:31.466Z,12.57
2023-02-22T16:47:04.372Z,11.52
2023-02-22T16:49:39.602Z,12.20
2023-02-22T16:52:13.078Z,9.45
2023-02-22T16:54:47.348Z,14.05
2023-02-22T16:57:23.149Z,14.43
2023-02-22T16:59:56.150Z,12.82
2023-02-22T17:02:29.043Z,11.55
2023-02-22T17:05:03.371Z,10.43
2023-02-22T17:07:36.358Z,11.75
2023-02-22T17:10:09.724Z,10.23
2023-02-22T17:12:43.997Z,11.93
2023-02-22T17:15:23.340Z,11.15
2023-02-22T17:17:57.604Z,12.23
2023-02-22T17:20:33.410Z,14.20
2023-02-22T17:23:09.097Z,11.50
2023-02-22T17:25:44.717Z,12.30
2023-02-22T17:28:17.978Z,11.48
2023-02-22T17:30:51.730Z,13.90
2023-02-22T17:33:27.008Z,11.73
2023-02-22T17:36:03.567Z,10.63
2023-02-22T17:38:36.561Z,11.45
2023-02-22T17:41:09.676Z,10.73
2023-02-22T17:43:42.590Z,12.80
2023-02-22T17:46:15.968Z,13.25
2023-02-22T17:48:49.311Z,12.50
2023-02-22T17:51:25.940Z,13.45
2023-02-22T17:53:58.848Z,12.40
2023-02-22T17:56:32.082Z,13.07
2023-02-22T17:59:08.047Z,11.77
2023-02-22T18:01:44.372Z,13.20
2023-02-22T18:06:52.531Z,15.43
2023-02-22T18:09:25.434Z,12.88
2023-02-22T18:11:58.387Z,12.07
2023-02-22T18:14:31.280Z,16.80
2023-02-22T18:17:04.262Z,12.68
2023-02-22T18:19:37.161Z,11.90
2023-02-22T18:22:12.004Z,13.20
2023-02-22T18:24:44.860Z,10.68
2023-02-22T18:27:17.943Z,12.32
2023-02-22T18:29:50.880Z,14.93
2023-02-22T18:32:24.273Z,11.07
2023-02-22T18:34:57.198Z,15.13
2023-02-22T18:37:31.712Z,14.00
2023-02-22T18:40:10.276Z,12.95
2023-02-22T18:42:43.318Z,12.32
2023-02-22T18:45:17.211Z,14.15
2023-02-22T18:47:50.384Z,14.07
2023-02-22T18:50:23.241Z,14.52
2023-02-22T18:52:57.485Z,14.75
2023-02-22T18:55:30.301Z,12.50
2023-02-22T18:58:04.841Z,14.80
2023-02-22T19:00:38.249Z,12.48
2023-02-22T19:03:11.166Z,14.40
2023-02-22T19:05:44.125Z,14.68
2023-02-22T19:08:18.481Z,14.15
2023-02-22T19:10:51.334Z,15.73
2023-02-22T19:13:24.231Z,13.98
2023-02-22T19:15:57.247Z,12.75
2023-02-22T19:18:31.122Z,12.80
2023-02-22T19:21:08.690Z,13.57
2023-02-22T19:23:45.720Z,13.38
2023-02-22T19:26:20.461Z,11.57
2023-02-22T19:28:55.182Z,14.55
2023-02-22T19:31:31.708Z,11.73
2023-02-22T19:34:08.950Z,13.30
2023-02-22T19:36:44.966Z,16.48
2023-02-22T19:41:53.954Z,11.10
2023-02-22T19:44:28.561Z,13.85
2023-02-22T19:47:01.433Z,14.52
2023-02-22T19:49:35.406Z,14.88
2023-02-22T19:52:08.353Z,11.82
2023-02-22T19:54:42.914Z,13.38
2023-02-22T19:57:15.880Z,13.85
2023-02-22T19:59:49.502Z,12.05
2023-02-22T20:02:27.235Z,16.05
2023-02-22T20:05:00.364Z,18.98
2023-02-22T20:07:33.330Z,14.85
2023-02-22T20:10:08.348Z,16.38
2023-02-22T20:12:41.317Z,14.25
2023-02-22T20:15:14.242Z,13.55
2023-02-22T20:17:50.405Z,14.00
2023-02-22T20:20:24.208Z,12.90
2023-02-22T20:22:57.170Z,16.55
2023-02-22T20:25:31.501Z,17.23
2023-02-22T20:28:05.612Z,17.52
2023-02-22T20:30:39.857Z,14.02
2023-02-22T20:33:13.951Z,16.38
2023-02-22T20:35:47.727Z,18.75
2023-02-22T20:38:20.604Z,14.88
2023-02-22T20:40:54.953Z,14.07
2023-02-22T20:43:27.934Z,13.05
2023-02-22T20:46:02.370Z,13.60
2023-02-22T20:48:35.873Z,15.10
2023-02-22T20:51:10.134Z,13.98
2023-02-22T20:53:45.017Z,12.73
2023-02-22T20:56:21.738Z,13.82
2023-02-22T20:58:57.287Z,14.95
2023-02-22T21:01:31.204Z,16.48
2023-02-22T21:04:06.339Z,22.65
2023-02-22T21:06:40.413Z,14.85
2023-02-22T21:09:15.732Z,14.07
2023-02-22T21:11:50.387Z,14.63
2023-02-22T21:14:24.462Z,12.32
2023-02-22T21:16:57.426Z,13.93
2023-02-22T21:19:32.140Z,13.07
2023-02-22T21:22:08.439Z,13.60
2023-02-22T21:24:41.695Z,11.88
2023-02-22T21:27:16.978Z,13.25
2023-02-22T21:29:50.276Z,12.77
2023-02-22T21:32:23.295Z,13.05
2023-02-22T21:34:56.174Z,14.18
2023-02-22T21:37:29.155Z,17.65
2023-02-22T21:40:02.083Z,12.68
2023-02-22T21:42:37.491Z,12.90
2023-02-22T21:45:12.479Z,13.55
2023-02-22T21:47:46.362Z,11.38
2023-02-22T21:50:20.314Z,10.85
2023-02-22T21:52:53.281Z,10.50
2023-02-22T21:55:26.175Z,9.32
2023-02-22T21:58:00.562Z,9.88
2023-02-22T22:00:38.363Z,11.27
2023-02-22T22:03:14.349Z,11.70
2023-02-22T22:05:48.832Z,11.38
2023-02-22T22:08:21.880Z,11.40
2023-02-22T22:10:55.439Z,12.57
2023-02-22T22:13:29.779Z,9.68
2023-02-22T22:16:05.896Z,11.20
2023-02-22T22:18:41.205Z,13.52
2023-02-22T22:21:17.710Z,10.88
2023-02-22T22:23:54.498Z,10.55
2023-02-22T22:26:27.575Z,11.90
2023-02-22T22:29:04.391Z,14.20
2023-02-22T22:31:37.534Z,11.52
2023-02-22T22:34:10.471Z,11.18
2023-02-22T22:36:43.399Z,11.65
2023-02-22T22:39:16.621Z,10.40
2023-02-22T22:41:49.696Z,11.30
2023-02-22T22:44:24.081Z,13.05
2023-02-22T22:46:56.972Z,10.48
2023-02-22T22:49:31.524Z,11.20
2023-02-22T22:52:04.559Z,12.93
2023-02-22T22:54:38.367Z,10.85
2023-02-22T22:57:12.322Z,10.18
2023-02-22T22:59:47.084Z,9.77
2023-02-22T23:02:20.484Z,11.73
2023-02-22T23:04:53.606Z,13.35
2023-02-22T23:07:26.690Z,11.23
2023-02-22T23:09:59.736Z,12.27
2023-02-22T23:12:32.762Z,12.95
2023-02-22T23:15:08.349Z,12.93
2023-02-22T23:17:42.546Z,14.43
2023-02-22T23:20:15.858Z,13.90
2023-02-22T23:22:48.756Z,11.13
2023-02-22T23:25:22.661Z,13.18
2023-02-22T23:27:55.743Z,12.45
2023-02-22T23:30:30.833Z,13.23
2023-02-22T23:33:03.744Z,15.82
2023-02-22T23:35:36.930Z,12.68
2023-02-22T23:38:11.248Z,11.45
2023-02-22T23:40:46.102Z,13.45
2023-02-22T23:43:21.873Z,13.45
2023-02-22T23:45:57.624Z,12.00
2023-02-22T23:48:30.711Z,11.57
2023-02-22T23:51:09.208Z,12.75
2023-02-22T23:53:45.979Z,12.52
2023-02-22T23:56:22.054Z,11.35
2023-02-22T23:58:57.539Z,14.85
